createdAt,value
2018-11-21T00:00:24.689Z,97394.05
2018-11-21T00:02:56.574Z,97387.22
2018-11-21T00:05:27.698Z,97396.11
2018-11-21T00:07:59.162Z,97396.61
2018-11-21T00:10:31.423Z,97402.54
2018-11-21T00:13:03.722Z,97400.58
2018-11-21T00:15:35.667Z,97400.02
2018-11-21T00:18:07.136Z,97400.80
2018-11-21T00:20:39.146Z,97397.52
2018-11-21T00:23:11.106Z,97393.66
2018-11-21T00:25:42.870Z,97390.42
2018-11-21T00:28:14.885Z,97390.39
2018-11-21T00:30:46.533Z,97391.16
2018-11-21T00:33:18.044Z,97398.95
2018-11-21T00:35:49.683Z,97397.59
2018-11-21T00:38:22.220Z,97402.17
2018-11-21T00:40:53.854Z,97401.06
2018-11-21T00:43:25.284Z,97400.73
2018-11-21T00:45:57.799Z,97406.39
2018-11-21T00:48:29.414Z,97411.50
2018-11-21T00:51:01.319Z,97416.91
2018-11-21T00:57:02.429Z,97420.38
2018-11-21T00:59:34.509Z,97418.64
2018-11-21T01:02:05.180Z,97423.88
2018-11-21T01:04:38.075Z,97425.91
2018-11-21T01:07:11.855Z,97426.11
2018-11-21T01:09:45.920Z,97434.20
2018-11-21T01:12:19.366Z,97437.16
2018-11-21T01:14:53.725Z,97442.27
2018-11-21T01:17:27.099Z,97440.34
2018-11-21T01:20:01.010Z,97442.17
2018-11-21T01:22:34.972Z,97440.78
2018-11-21T01:25:09.794Z,97439.67
2018-11-21T01:27:44.044Z,97445.03
2018-11-21T01:30:17.996Z,97460.92
2018-11-21T01:32:51.490Z,97447.37
2018-11-21T01:35:25.966Z,97446.48
2018-11-21T01:37:59.399Z,97452.66
2018-11-21T01:40:33.217Z,97455.89
2018-11-21T01:43:06.580Z,97454.01
2018-11-21T01:45:40.789Z,97461.03
2018-11-21T01:48:14.530Z,97464.80
2018-11-21T01:50:48.028Z,97472.08
2018-11-21T01:53:22.227Z,97475.84
2018-11-21T01:55:55.731Z,97472.84
2018-11-21T01:58:28.882Z,97462.48
2018-11-21T02:01:02.660Z,97465.70
2018-11-21T02:03:36.187Z,97469.41
2018-11-21T02:06:09.965Z,97467.19
2018-11-21T02:08:43.410Z,97476.63
2018-11-21T02:11:17.603Z,97481.97
2018-11-21T02:13:51.023Z,97480.63
2018-11-21T02:16:24.431Z,97485.20
2018-11-21T02:18:58.574Z,97489.73
2018-11-21T02:21:32.804Z,97482.45
2018-11-21T02:24:06.785Z,97485.66
2018-11-21T02:26:40.519Z,97484.84
2018-11-21T02:29:14.106Z,97487.48
2018-11-21T02:31:47.837Z,97488.55
2018-11-21T02:34:21.563Z,97496.06
2018-11-21T02:36:55.843Z,97501.17
2018-11-21T02:39:29.243Z,97496.28
2018-11-21T02:42:03.130Z,97490.06
2018-11-21T02:44:36.842Z,97491.41
2018-11-21T02:47:10.807Z,97496.23
2018-11-21T02:49:43.959Z,97497.00
2018-11-21T02:52:17.174Z,97492.90
2018-11-21T02:54:50.905Z,97485.61
2018-11-21T02:57:34.228Z,97483.97
2018-11-21T03:00:15.808Z,97483.67
2018-11-21T03:02:48.990Z,97482.32
2018-11-21T03:09:29.537Z,97493.20
2018-11-21T03:12:03.308Z,97497.58
2018-11-21T03:14:36.675Z,97508.73
2018-11-21T03:17:09.866Z,97516.70
2018-11-21T03:19:43.265Z,97518.80
2018-11-21T03:22:16.895Z,97520.09
2018-11-21T03:24:50.290Z,97526.55
2018-11-21T03:27:24.020Z,97535.98
2018-11-21T03:29:58.219Z,97534.58
2018-11-21T03:32:31.595Z,97535.88
2018-11-21T03:35:04.749Z,97535.88
2018-11-21T03:37:38.687Z,97545.32
2018-11-21T03:40:13.831Z,97548.81
2018-11-21T03:42:47.403Z,97541.77
2018-11-21T03:45:22.561Z,97529.64
2018-11-21T03:47:55.939Z,97531.70
2018-11-21T03:50:29.298Z,97533.81
2018-11-21T03:53:03.127Z,97529.47
2018-11-21T03:55:36.793Z,97518.95
2018-11-21T03:58:10.416Z,97520.83
2018-11-21T04:00:44.035Z,97522.13
2018-11-21T04:03:17.614Z,97524.82
2018-11-21T04:05:51.250Z,97530.21
2018-11-21T04:08:25.487Z,97530.50
2018-11-21T04:10:58.555Z,97530.80
2018-11-21T04:16:12.321Z,97541.09
2018-11-21T04:18:50.678Z,97550.58
2018-11-21T04:21:24.115Z,97555.89
2018-11-21T04:23:57.803Z,97562.28
2018-11-21T04:26:31.387Z,97564.89
2018-11-21T04:29:04.811Z,97568.20
2018-11-21T04:31:38.468Z,97566.33
2018-11-21T04:34:11.845Z,97567.97
2018-11-21T04:36:45.100Z,97575.23
2018-11-21T04:39:18.774Z,97573.89
2018-11-21T04:41:52.390Z,97582.51
2018-11-21T04:44:26.361Z,97576.87
2018-11-21T04:47:00.323Z,97577.11
2018-11-21T04:49:33.690Z,97578.90
2018-11-21T04:52:06.931Z,97573.72
2018-11-21T04:54:40.557Z,97579.11
2018-11-21T04:57:14.575Z,97587.20
2018-11-21T04:59:48.584Z,97590.66
2018-11-21T05:02:22.141Z,97594.64
2018-11-21T05:04:55.522Z,97601.14
2018-11-21T05:07:29.302Z,97606.02
2018-11-21T05:10:02.975Z,97611.64
2018-11-21T05:12:36.350Z,97617.27
2018-11-21T05:15:09.992Z,97612.98
2018-11-21T05:17:43.539Z,97617.97
2018-11-21T05:20:16.894Z,97624.43
2018-11-21T05:22:50.406Z,97629.20
2018-11-21T05:25:24.007Z,97632.63
2018-11-21T05:27:57.504Z,97633.84
2018-11-21T05:30:30.893Z,97638.61
2018-11-21T05:33:04.545Z,97640.15
2018-11-21T05:35:38.943Z,97636.58
2018-11-21T05:38:12.303Z,97632.05
2018-11-21T05:40:46.529Z,97632.76
2018-11-21T05:43:20.744Z,97648.25
2018-11-21T05:45:54.420Z,97662.17
2018-11-21T05:48:28.905Z,97659.01
2018-11-21T05:51:03.138Z,97667.33
2018-11-21T05:53:37.423Z,97679.03
2018-11-21T05:56:10.799Z,97690.78
2018-11-21T05:58:44.221Z,97693.00
2018-11-21T06:01:18.061Z,97697.69
2018-11-21T06:03:51.582Z,97694.52
2018-11-21T06:06:26.073Z,97701.92
2018-11-21T06:08:59.211Z,97703.39
2018-11-21T06:11:32.656Z,97693.98
2018-11-21T06:14:06.017Z,97696.26
2018-11-21T06:16:39.235Z,97697.42
2018-11-21T06:19:12.706Z,97694.81
2018-11-21T06:21:46.673Z,97696.22
2018-11-21T06:24:20.534Z,97692.45
2018-11-21T06:27:01.618Z,97697.38
2018-11-21T06:29:34.995Z,97697.47
2018-11-21T06:32:08.237Z,97710.22
2018-11-21T06:34:41.833Z,97719.42
2018-11-21T06:37:15.149Z,97720.53
2018-11-21T06:39:49.184Z,97721.44
2018-11-21T06:42:22.971Z,97724.44
2018-11-21T06:44:56.287Z,97733.12
2018-11-21T06:47:29.378Z,97737.77
2018-11-21T06:50:03.131Z,97734.28
2018-11-21T06:52:36.508Z,97740.28
2018-11-21T06:55:10.109Z,97744.13
2018-11-21T06:57:43.711Z,97754.77
2018-11-21T07:00:16.771Z,97753.20
2018-11-21T07:02:50.689Z,97755.42
2018-11-21T07:05:24.306Z,97763.06
2018-11-21T07:08:01.149Z,97765.52
2018-11-21T07:10:34.603Z,97764.73
2018-11-21T07:13:11.165Z,97770.45
2018-11-21T07:15:41.836Z,97771.27
2018-11-21T07:18:15.578Z,97780.75
2018-11-21T07:20:48.745Z,97785.09
2018-11-21T07:23:22.214Z,97780.26
2018-11-21T07:25:55.521Z,97780.26
2018-11-21T07:28:28.917Z,97780.50
2018-11-21T07:31:02.552Z,97787.80
2018-11-21T07:33:36.481Z,97787.56
2018-11-21T07:36:09.591Z,97788.38
2018-11-21T07:38:43.456Z,97790.27
2018-11-21T07:41:16.960Z,97794.28
2018-11-21T07:43:50.553Z,97792.92
2018-11-21T07:46:24.414Z,97802.93
2018-11-21T07:48:58.318Z,97802.69
2018-11-21T07:51:31.631Z,97805.92
2018-11-21T07:54:05.522Z,97819.72
2018-11-21T07:57:39.873Z,97825.71
2018-11-21T08:01:26.114Z,97819.23
2018-11-21T08:04:19.148Z,97816.48
2018-11-21T08:06:59.035Z,97823.23
2018-11-21T08:09:49.542Z,97824.07
2018-11-21T08:12:47.184Z,97826.29
2018-11-21T08:15:53.636Z,97822.23
2018-11-21T08:18:44.076Z,97820.09
2018-11-21T08:21:51.358Z,97830.68
2018-11-21T08:24:35.311Z,97826.95
2018-11-21T08:27:16.099Z,97831.34
2018-11-21T08:29:49.796Z,97840.34
2018-11-21T08:32:23.556Z,97836.58
2018-11-21T08:34:57.160Z,97834.48
2018-11-21T08:37:30.282Z,97844.79
2018-11-21T08:40:03.378Z,97835.59
2018-11-21T08:42:36.819Z,97844.01
2018-11-21T08:45:11.373Z,97844.59
2018-11-21T08:47:44.755Z,97853.28
2018-11-21T08:50:17.839Z,97853.83
2018-11-21T08:52:51.538Z,97856.30
2018-11-21T08:55:25.227Z,97864.17
2018-11-21T08:57:58.693Z,97872.34
2018-11-21T09:00:32.740Z,97862.61
2018-11-21T09:03:06.855Z,97870.00
2018-11-21T09:05:40.284Z,97876.81
2018-11-21T09:08:13.927Z,97874.39
2018-11-21T09:10:47.847Z,97871.97
2018-11-21T09:13:21.241Z,97874.96
2018-11-21T09:15:55.833Z,97872.80
2018-11-21T09:18:29.921Z,97877.42
2018-11-21T09:21:03.308Z,97880.92
2018-11-21T09:23:37.170Z,97876.86
2018-11-21T09:26:10.802Z,97872.27
2018-11-21T09:28:44.487Z,97876.86
2018-11-21T09:31:18.092Z,97886.31
2018-11-21T09:33:51.381Z,97897.72
2018-11-21T09:36:25.189Z,97895.42
2018-11-21T09:38:59.272Z,97898.62
2018-11-21T09:41:33.005Z,97904.25
2018-11-21T09:44:06.999Z,97914.80
2018-11-21T09:46:40.418Z,97921.58
2018-11-21T09:49:13.586Z,97924.03
2018-11-21T09:51:46.925Z,97924.29
2018-11-21T09:54:20.042Z,97922.69
2018-11-21T09:56:53.518Z,97917.30
2018-11-21T09:59:27.656Z,97922.23
2018-11-21T10:03:27.090Z,97932.01
2018-11-21T10:06:14.556Z,97934.72
2018-11-21T10:08:51.992Z,97937.64
2018-11-21T10:11:26.518Z,97929.50
2018-11-21T10:14:01.162Z,97927.33
2018-11-21T10:16:34.627Z,97922.69
2018-11-21T10:19:08.255Z,97915.66
2018-11-21T10:21:41.950Z,97906.75
2018-11-21T10:24:16.437Z,97922.48
2018-11-21T10:26:49.870Z,97919.20
2018-11-21T10:29:23.093Z,97911.89
2018-11-21T10:31:57.431Z,97913.53
2018-11-21T10:34:31.183Z,97917.88
2018-11-21T10:37:04.899Z,97920.30
2018-11-21T10:39:38.543Z,97921.66
2018-11-21T10:42:12.687Z,97914.10
2018-11-21T10:44:46.120Z,97911.14
2018-11-21T10:47:19.696Z,97914.93
2018-11-21T10:49:53.826Z,97920.14
2018-11-21T10:52:31.529Z,97918.86
2018-11-21T10:55:01.591Z,97922.69
2018-11-21T10:57:35.067Z,97924.62
2018-11-21T11:00:28.372Z,97926.84
2018-11-21T11:03:14.103Z,97925.23
2018-11-21T11:06:12.939Z,97925.77
2018-11-21T11:09:11.041Z,97924.70
2018-11-21T11:12:04.990Z,97917.14
2018-11-21T11:14:55.702Z,97918.00
2018-11-21T11:17:53.559Z,97921.24
2018-11-21T11:20:43.665Z,97923.67
2018-11-21T11:23:42.837Z,97931.28
